CPX231 Details

Departure: Phoenix Sky Harbor International Airport (KPHX)
Arrival: Chicago/Rockford International Airport (KRFD)
Route: BROAK1 MAXXO ACH J231 LBL J19 ICT J26 IRK J232 MZV PLL


Current Weather Information
KPHX 232151Z 32008KT 10SM SCT090 SCT250 23/02 A2994 RMK AO2 SLP128 T02280017
KRFD 232154Z 26012G19KT 10SM FEW250 23/12 A3006 RMK AO2 SLP179 T02280117